Terminal Aerodrome Forecast
Issued by NWS

Home | Current Version | Previous Version | Text Only | Print | Product List | Glossary On
Versions: 1 2 3 4 5 6 7 8 9 10 11 12 13 14 15 16 17 18 19 20 21 22 23 24 25 26 27
000
FTUS41 KCTP 260124 AAA
TAFJST
TAF AMD
KJST 260124Z 2601/2624 08007KT 1/2SM -DZ FG OVC002
      TEMPO 2601/2604 1/4SM FG VV002
     FM260400 VRB03KT 1/4SM -DZ FG VV002
     FM261500 VRB04KT P6SM BKN015
     FM261700 17005KT P6SM BKN045=

USA.gov is the U.S. government's official web portal to all federal, state and local government web resources and services.